createdAt,value
2019-04-27T00:00:15.450Z,99.31
2019-04-27T00:01:13.783Z,99.41
2019-04-27T00:02:13.468Z,99.31
2019-04-27T00:03:13.498Z,99.41
2019-04-27T00:04:16.189Z,99.21
2019-04-27T00:05:14.374Z,99.35
2019-04-27T00:06:13.558Z,99.15
2019-04-27T00:07:13.137Z,99.52
2019-04-27T00:08:13.935Z,99.99
2019-04-27T00:09:14.479Z,99.72
2019-04-27T00:10:13.686Z,99.62
2019-04-27T00:11:13.690Z,99.93
2019-04-27T00:12:16.435Z,99.82
2019-04-27T00:13:15.200Z,99.99
2019-04-27T00:14:14.920Z,99.88
2019-04-27T00:15:13.454Z,99.68
2019-04-27T00:16:13.465Z,99.68
2019-04-27T00:17:13.426Z,99.68
2019-04-27T00:18:13.997Z,99.84
2019-04-27T00:19:13.427Z,99.99
2019-04-27T00:20:13.127Z,99.63
2019-04-27T00:21:13.519Z,99.99
2019-04-27T00:22:14.624Z,99.94
2019-04-27T00:23:13.239Z,99.22
2019-04-27T00:24:13.511Z,99.32
2019-04-27T00:25:13.133Z,99.84
2019-04-27T00:26:13.439Z,99.94
2019-04-27T00:27:13.372Z,99.43
2019-04-27T00:28:13.416Z,99.43
2019-04-27T00:29:13.682Z,99.84
2019-04-27T00:30:13.841Z,99.63
2019-04-27T00:31:13.196Z,99.43
2019-04-27T00:32:13.366Z,99.84
2019-04-27T00:33:13.674Z,99.22
2019-04-27T00:34:13.336Z,99.84
2019-04-27T00:35:13.809Z,99.84
2019-04-27T00:36:13.364Z,99.84
2019-04-27T00:37:13.594Z,99.73
2019-04-27T00:38:13.135Z,99.43
2019-04-27T00:39:13.855Z,99.84
2019-04-27T00:40:14.647Z,99.57
2019-04-27T00:41:14.057Z,99.88
2019-04-27T00:42:13.475Z,99.78
2019-04-27T00:43:13.957Z,99.57
2019-04-27T00:44:13.503Z,99.26
2019-04-27T00:45:13.491Z,99.41
2019-04-27T00:46:13.828Z,99.52
2019-04-27T00:47:13.816Z,99.21
2019-04-27T00:48:13.509Z,99.35
2019-04-27T00:49:13.747Z,99.25
2019-04-27T00:50:13.506Z,99.15
2019-04-27T00:51:12.933Z,99.10
2019-04-27T00:52:13.911Z,99.56
2019-04-27T00:53:13.506Z,99.46
2019-04-27T00:54:13.641Z,99.25
2019-04-27T00:55:13.384Z,99.62
2019-04-27T00:56:13.876Z,99.93
2019-04-27T00:57:13.055Z,99.82
2019-04-27T00:58:13.279Z,99.62
2019-04-27T00:59:13.738Z,99.52
2019-04-27T01:00:13.439Z,99.52
2019-04-27T01:01:12.683Z,99.41
2019-04-27T01:02:13.523Z,99.56
2019-04-27T01:03:13.990Z,99.62
2019-04-27T01:04:13.645Z,99.66
2019-04-27T01:05:13.207Z,99.99
2019-04-27T01:06:13.098Z,99.82
2019-04-27T01:07:14.303Z,99.56
2019-04-27T01:08:13.786Z,99.99
2019-04-27T01:09:13.418Z,99.93
2019-04-27T01:10:13.466Z,99.82
2019-04-27T01:11:13.979Z,99.99
2019-04-27T01:12:13.601Z,99.82
2019-04-27T01:13:13.245Z,99.99
2019-04-27T01:14:12.836Z,99.99
2019-04-27T01:15:13.729Z,99.82
2019-04-27T01:16:15.646Z,99.93
2019-04-27T01:17:13.146Z,99.82
2019-04-27T01:18:15.376Z,99.99
2019-04-27T01:19:13.140Z,99.56
2019-04-27T01:20:12.118Z,99.87
2019-04-27T01:21:12.983Z,99.72
2019-04-27T01:22:12.134Z,99.82
2019-04-27T01:23:12.102Z,99.82
2019-04-27T01:24:12.113Z,99.99
2019-04-27T01:25:12.106Z,99.62
2019-04-27T01:26:12.981Z,99.88
2019-04-27T01:27:12.094Z,99.57
2019-04-27T01:28:12.092Z,99.88
2019-04-27T01:29:12.070Z,99.68
2019-04-27T01:30:12.055Z,99.99
2019-04-27T01:31:12.059Z,99.68
2019-04-27T01:32:12.057Z,99.82
2019-04-27T01:33:12.036Z,99.68
2019-04-27T01:34:12.074Z,99.72
2019-04-27T01:35:12.025Z,99.88
2019-04-27T01:36:12.013Z,99.72
2019-04-27T01:37:12.028Z,99.62
2019-04-27T01:38:12.059Z,99.82
2019-04-27T01:39:12.028Z,99.93
2019-04-27T01:40:11.978Z,99.99
2019-04-27T01:41:11.998Z,99.93
2019-04-27T01:42:11.986Z,99.82
2019-04-27T01:43:12.013Z,99.52
2019-04-27T01:44:12.980Z,99.56
2019-04-27T01:45:11.995Z,99.87
2019-04-27T01:46:11.974Z,99.31
2019-04-27T01:47:11.960Z,99.31
2019-04-27T01:48:23.104Z,99.99
2019-04-27T01:49:13.998Z,99.72
2019-04-27T01:50:11.956Z,99.82
2019-04-27T01:51:12.484Z,99.82
2019-04-27T01:52:11.970Z,99.93
2019-04-27T01:53:11.953Z,99.87
2019-04-27T01:54:11.960Z,99.82
2019-04-27T01:55:11.925Z,99.66
2019-04-27T01:56:11.969Z,99.41
2019-04-27T01:57:11.939Z,99.52
2019-04-27T01:58:11.914Z,99.31
2019-04-27T01:59:11.944Z,99.56
2019-04-27T02:00:11.896Z,99.25
2019-04-27T02:01:11.896Z,99.30
2019-04-27T02:02:11.903Z,98.88
2019-04-27T02:03:11.931Z,99.61
2019-04-27T02:04:11.888Z,99.66
2019-04-27T02:05:11.886Z,99.15
2019-04-27T02:06:11.863Z,99.35
2019-04-27T02:07:11.854Z,99.66
2019-04-27T02:08:11.850Z,99.66
2019-04-27T02:09:11.839Z,99.99
2019-04-27T02:10:11.853Z,99.99
2019-04-27T02:11:11.897Z,99.98
2019-04-27T02:12:11.879Z,99.87
2019-04-27T02:13:11.812Z,99.87
2019-04-27T02:14:11.798Z,99.35
2019-04-27T02:15:11.820Z,99.56
2019-04-27T02:16:11.782Z,99.99
2019-04-27T02:17:11.806Z,99.46
2019-04-27T02:18:12.769Z,99.98
2019-04-27T02:19:11.754Z,99.99
2019-04-27T02:20:11.773Z,99.98
2019-04-27T02:21:11.776Z,99.99
2019-04-27T02:22:12.483Z,99.98
2019-04-27T02:23:11.778Z,99.99
2019-04-27T02:24:11.755Z,99.77
2019-04-27T02:25:11.770Z,99.66
2019-04-27T02:26:11.747Z,99.87
2019-04-27T02:27:11.758Z,99.46
2019-04-27T02:28:11.737Z,99.56
2019-04-27T02:29:11.731Z,99.98
2019-04-27T02:30:11.923Z,99.98
2019-04-27T02:31:11.694Z,99.77
2019-04-27T02:32:11.694Z,99.66
2019-04-27T02:33:12.865Z,99.77
2019-04-27T02:34:12.662Z,99.66
2019-04-27T02:35:11.678Z,99.87
2019-04-27T02:36:14.771Z,99.31
2019-04-27T02:37:12.675Z,99.98
2019-04-27T02:38:11.652Z,99.72
2019-04-27T02:39:11.639Z,99.72
2019-04-27T02:40:11.670Z,99.99
2019-04-27T02:41:11.622Z,99.99
2019-04-27T02:42:11.600Z,99.99
2019-04-27T02:43:11.614Z,99.99
2019-04-27T02:44:11.612Z,99.72
2019-04-27T02:45:11.615Z,99.99
2019-04-27T02:46:11.601Z,99.99
2019-04-27T02:47:11.596Z,99.62
2019-04-27T02:48:11.588Z,99.99
2019-04-27T02:49:11.586Z,99.99
2019-04-27T02:50:11.561Z,99.52
2019-04-27T02:51:11.568Z,99.99
2019-04-27T02:52:11.543Z,99.93
2019-04-27T02:53:11.538Z,99.52
2019-04-27T02:54:12.616Z,99.99
2019-04-27T02:55:12.516Z,99.99
2019-04-27T02:56:11.551Z,99.62
2019-04-27T02:57:11.532Z,99.99
2019-04-27T02:58:12.954Z,99.99
2019-04-27T02:59:12.525Z,99.99
2019-04-27T03:00:11.497Z,99.99
2019-04-27T03:01:11.490Z,99.99
2019-04-27T03:02:11.465Z,99.99
2019-04-27T03:03:11.472Z,99.99
2019-04-27T03:04:11.476Z,99.99
2019-04-27T03:05:13.160Z,99.99
2019-04-27T03:06:12.484Z,99.99
2019-04-27T03:07:11.714Z,99.68
2019-04-27T03:08:11.454Z,99.99
2019-04-27T03:09:11.421Z,99.99
2019-04-27T03:10:11.416Z,99.88
2019-04-27T03:11:11.419Z,99.82
2019-04-27T03:12:11.414Z,99.78
2019-04-27T03:13:11.396Z,99.88
2019-04-27T03:14:27.972Z,99.99
2019-04-27T03:15:13.389Z,99.68
2019-04-27T03:16:13.416Z,99.26
2019-04-27T03:17:11.979Z,99.26
2019-04-27T03:18:11.362Z,99.68
2019-04-27T03:19:17.447Z,99.88
2019-04-27T03:20:13.373Z,99.68
2019-04-27T03:21:13.186Z,99.93
2019-04-27T03:22:12.348Z,99.78
2019-04-27T03:23:11.352Z,99.99
2019-04-27T03:24:11.330Z,99.68
2019-04-27T03:25:14.905Z,99.37
2019-04-27T03:26:12.343Z,99.26
2019-04-27T03:27:11.312Z,99.78
2019-04-27T03:28:11.305Z,99.57
2019-04-27T03:29:11.303Z,99.68
2019-04-27T03:30:12.503Z,99.16
2019-04-27T03:31:13.762Z,99.68
2019-04-27T03:32:13.163Z,99.37
2019-04-27T03:33:12.553Z,99.22
2019-04-27T03:34:16.457Z,99.78
2019-04-27T03:35:13.367Z,99.47
2019-04-27T03:36:13.226Z,99.99
2019-04-27T03:37:12.254Z,99.88
2019-04-27T03:38:12.503Z,99.57
2019-04-27T03:39:12.229Z,99.99
2019-04-27T03:40:11.279Z,99.82
2019-04-27T03:41:11.225Z,99.78
2019-04-27T03:42:11.270Z,99.99
2019-04-27T03:43:11.745Z,99.78
2019-04-27T03:44:12.980Z,99.62
2019-04-27T03:45:12.019Z,99.68
2019-04-27T03:46:11.230Z,99.93
2019-04-27T03:47:12.713Z,99.82
2019-04-27T03:48:12.212Z,99.99
2019-04-27T03:49:20.349Z,99.62
2019-04-27T03:50:13.941Z,99.82
2019-04-27T03:51:12.173Z,99.87
2019-04-27T03:52:11.529Z,99.99
2019-04-27T03:53:11.139Z,99.93
2019-04-27T03:54:11.132Z,99.99
2019-04-27T03:55:11.125Z,99.93
2019-04-27T03:56:11.107Z,99.82
2019-04-27T03:57:15.019Z,99.82
2019-04-27T03:58:12.143Z,99.99
2019-04-27T03:59:12.103Z,99.82
2019-04-27T04:00:11.076Z,99.98
2019-04-27T04:01:11.097Z,99.98
2019-04-27T04:02:11.935Z,99.77
2019-04-27T04:03:11.081Z,99.72
2019-04-27T04:04:11.148Z,99.87
2019-04-27T04:05:11.066Z,99.93
2019-04-27T04:06:11.041Z,99.82
2019-04-27T04:07:11.158Z,99.87
2019-04-27T04:08:12.032Z,99.87
2019-04-27T04:09:11.025Z,99.87
2019-04-27T04:10:11.061Z,99.98
2019-04-27T04:11:11.008Z,99.98
2019-04-27T04:12:11.037Z,99.87
2019-04-27T04:13:11.003Z,99.92
2019-04-27T04:14:10.985Z,99.99
2019-04-27T04:15:10.999Z,99.99
2019-04-27T04:16:11.066Z,99.71
2019-04-27T04:17:12.722Z,99.99
2019-04-27T04:18:11.947Z,99.92
2019-04-27T04:19:10.993Z,99.92
2019-04-27T04:20:10.980Z,99.82
2019-04-27T04:21:10.980Z,99.92
2019-04-27T04:22:10.974Z,99.92
2019-04-27T04:23:11.491Z,99.92
2019-04-27T04:24:12.112Z,99.96
2019-04-27T04:25:11.959Z,99.71
2019-04-27T04:26:10.961Z,99.82
2019-04-27T04:27:10.984Z,99.96
2019-04-27T04:28:10.969Z,99.99
2019-04-27T04:29:10.939Z,99.99
2019-04-27T04:30:12.402Z,99.61
2019-04-27T04:31:13.858Z,99.55
2019-04-27T04:32:11.937Z,99.55
2019-04-27T04:33:10.903Z,99.55
2019-04-27T04:34:12.042Z,99.55
2019-04-27T04:35:11.907Z,99.40
2019-04-27T04:36:11.918Z,99.76
2019-04-27T04:37:10.930Z,99.30
2019-04-27T04:38:10.898Z,99.65
2019-04-27T04:39:12.537Z,99.55
2019-04-27T04:40:11.895Z,99.34
2019-04-27T04:41:10.894Z,99.55
2019-04-27T04:42:10.875Z,99.55
2019-04-27T04:43:11.136Z,99.34
2019-04-27T04:44:12.480Z,98.88
2019-04-27T04:45:11.863Z,99.44
2019-04-27T04:46:13.255Z,99.55
2019-04-27T04:47:11.861Z,99.40
2019-04-27T04:48:10.834Z,99.24
2019-04-27T04:49:10.826Z,99.71
2019-04-27T04:50:14.927Z,99.44
2019-04-27T04:51:11.804Z,99.19
2019-04-27T04:52:10.798Z,99.09
2019-04-27T04:53:12.392Z,99.30
2019-04-27T04:54:11.787Z,99.30
2019-04-27T04:55:10.792Z,98.99
2019-04-27T04:56:10.866Z,99.30
2019-04-27T04:57:10.770Z,99.19
2019-04-27T04:58:10.781Z,99.51
2019-04-27T04:59:10.776Z,99.30
2019-04-27T05:00:10.750Z,99.09
2019-04-27T05:01:10.742Z,99.40
2019-04-27T05:02:10.937Z,99.30
2019-04-27T05:03:10.740Z,99.19
2019-04-27T05:04:10.714Z,99.15
2019-04-27T05:05:10.712Z,98.84
2019-04-27T05:06:10.721Z,98.84
2019-04-27T05:07:10.702Z,98.90
2019-04-27T05:08:10.751Z,98.28
2019-04-27T05:09:10.718Z,98.07
2019-04-27T05:10:10.731Z,98.18
2019-04-27T05:11:10.700Z,98.28
2019-04-27T05:12:10.717Z,97.86
2019-04-27T05:13:10.711Z,97.91
2019-04-27T05:14:10.691Z,98.01
2019-04-27T05:15:10.676Z,97.81
2019-04-27T05:16:10.678Z,98.01
2019-04-27T05:17:10.706Z,97.76
2019-04-27T05:18:10.691Z,97.66
2019-04-27T05:19:11.326Z,97.66
2019-04-27T05:20:22.314Z,97.86
2019-04-27T05:21:12.698Z,97.76
2019-04-27T05:22:10.680Z,97.51
2019-04-27T05:23:10.683Z,96.84
2019-04-27T05:24:10.654Z,96.44
2019-04-27T05:25:11.017Z,96.37
2019-04-27T05:26:11.646Z,95.96
2019-04-27T05:27:10.638Z,96.64
2019-04-27T05:28:10.631Z,96.59
2019-04-27T05:29:10.685Z,95.61
2019-04-27T05:30:10.619Z,95.61
2019-04-27T05:31:10.607Z,96.23
2019-04-27T05:32:10.586Z,96.12
2019-04-27T05:33:10.602Z,96.33
2019-04-27T05:34:10.598Z,96.64
2019-04-27T05:35:10.586Z,96.23
2019-04-27T05:36:10.559Z,96.33
2019-04-27T05:37:10.589Z,96.44
2019-04-27T05:38:13.240Z,96.33
2019-04-27T05:39:13.242Z,96.64
2019-04-27T05:40:11.566Z,96.08
2019-04-27T05:41:10.570Z,96.18
2019-04-27T05:42:16.770Z,96.18
2019-04-27T05:43:12.536Z,95.98
2019-04-27T05:44:12.712Z,96.02
2019-04-27T05:45:15.233Z,96.02
2019-04-27T05:46:12.413Z,96.59
2019-04-27T05:47:13.164Z,96.84
2019-04-27T05:48:11.523Z,96.33
2019-04-27T05:49:10.547Z,96.64
2019-04-27T05:50:13.342Z,96.64
2019-04-27T05:51:11.524Z,96.53
2019-04-27T05:52:14.614Z,96.53
2019-04-27T05:53:42.462Z,97.11
2019-04-27T05:54:10.473Z,97.01
2019-04-27T05:55:10.624Z,96.53
2019-04-27T05:56:11.458Z,96.80
2019-04-27T05:57:10.453Z,96.59
2019-04-27T05:58:10.448Z,96.18
2019-04-27T05:59:10.444Z,96.12
2019-04-27T06:00:10.432Z,96.49
2019-04-27T06:01:11.267Z,96.02
2019-04-27T06:02:11.418Z,96.39
2019-04-27T06:03:10.424Z,96.28
2019-04-27T06:04:10.424Z,96.45
2019-04-27T06:05:10.410Z,96.66
2019-04-27T06:06:10.411Z,95.99
2019-04-27T06:07:10.396Z,96.09
2019-04-27T06:08:10.387Z,95.17
2019-04-27T06:09:10.390Z,95.53
2019-04-27T06:10:10.377Z,94.92
2019-04-27T06:11:10.362Z,94.81
2019-04-27T06:12:10.359Z,95.43
2019-04-27T06:13:10.690Z,94.81
2019-04-27T06:14:11.354Z,94.65
2019-04-27T06:15:10.338Z,94.80
2019-04-27T06:16:10.327Z,95.42
2019-04-27T06:17:10.323Z,95.62
2019-04-27T06:18:10.314Z,95.56
2019-04-27T06:19:10.342Z,96.14
2019-04-27T06:20:10.321Z,95.73
2019-04-27T06:21:10.306Z,95.87
2019-04-27T06:22:10.297Z,96.66
2019-04-27T06:23:10.291Z,96.09
2019-04-27T06:24:10.470Z,94.81
2019-04-27T06:25:11.786Z,93.99
2019-04-27T06:26:11.757Z,94.30
2019-04-27T06:27:11.278Z,94.36
2019-04-27T06:28:10.288Z,94.51
2019-04-27T06:29:10.293Z,94.92
2019-04-27T06:30:10.269Z,94.60
2019-04-27T06:31:10.237Z,95.49
2019-04-27T06:32:10.910Z,95.18
2019-04-27T06:33:11.225Z,93.95
2019-04-27T06:34:10.238Z,94.05
2019-04-27T06:35:12.369Z,93.33
2019-04-27T06:36:11.207Z,93.58
2019-04-27T06:37:10.206Z,94.30
2019-04-27T06:38:11.594Z,94.52
2019-04-27T06:39:10.222Z,93.65
2019-04-27T06:40:10.212Z,92.93
2019-04-27T06:41:10.277Z,92.63
2019-04-27T06:42:17.930Z,93.20
2019-04-27T06:43:12.180Z,93.36
2019-04-27T06:44:11.442Z,92.85
2019-04-27T06:45:11.179Z,91.93
2019-04-27T06:46:10.154Z,91.76
2019-04-27T06:47:10.144Z,92.44
2019-04-27T06:48:10.136Z,90.26
2019-04-27T06:49:11.093Z,90.77
2019-04-27T06:50:11.133Z,90.99
2019-04-27T06:51:10.141Z,86.04
2019-04-27T06:52:10.114Z,89.04
2019-04-27T06:53:10.113Z,85.08
2019-04-27T06:54:10.098Z,81.91
2019-04-27T06:55:10.109Z,80.71
2019-04-27T06:56:10.088Z,83.07
2019-04-27T06:57:10.091Z,82.95
2019-04-27T06:58:10.071Z,85.58
2019-04-27T06:59:10.071Z,84.36
2019-04-27T07:00:10.064Z,81.37
2019-04-27T07:01:11.076Z,80.37
2019-04-27T07:02:11.042Z,80.68
2019-04-27T07:03:10.624Z,81.94
2019-04-27T07:04:11.101Z,84.24
2019-04-27T07:05:10.030Z,82.96
2019-04-27T07:06:09.999Z,82.70
2019-04-27T07:07:10.997Z,80.02
2019-04-27T07:08:09.995Z,81.46
2019-04-27T07:09:09.984Z,80.47
2019-04-27T07:10:09.990Z,80.88
2019-04-27T07:11:11.575Z,80.84
2019-04-27T07:12:10.957Z,78.06
2019-04-27T07:13:09.954Z,76.03
2019-04-27T07:14:11.599Z,73.49
2019-04-27T07:15:09.959Z,71.37
2019-04-27T07:16:09.929Z,71.06
2019-04-27T07:17:09.922Z,73.22
2019-04-27T07:18:09.931Z,72.21
2019-04-27T07:19:09.909Z,74.55
2019-04-27T07:20:09.910Z,75.81
2019-04-27T07:21:16.896Z,75.97
2019-04-27T07:22:11.880Z,77.45
2019-04-27T07:23:10.881Z,74.33
2019-04-27T07:24:09.925Z,74.07
2019-04-27T07:25:09.876Z,72.01
2019-04-27T07:26:09.859Z,77.06
2019-04-27T07:27:09.848Z,78.08
2019-04-27T07:28:09.867Z,76.10
2019-04-27T07:29:09.909Z,73.13
2019-04-27T07:30:11.774Z,75.82
2019-04-27T07:31:10.836Z,73.59
2019-04-27T07:32:09.827Z,72.88
2019-04-27T07:33:10.511Z,71.80
2019-04-27T07:34:09.817Z,68.67
2019-04-27T07:35:09.981Z,69.82
2019-04-27T07:36:09.823Z,65.88
2019-04-27T07:37:11.130Z,69.85
2019-04-27T07:38:10.016Z,69.74
2019-04-27T07:39:11.573Z,69.18
2019-04-27T07:40:10.800Z,68.80
2019-04-27T07:41:09.780Z,67.63
2019-04-27T07:42:09.784Z,66.69
2019-04-27T07:43:09.766Z,64.90
2019-04-27T07:44:10.192Z,63.76
2019-04-27T07:45:11.288Z,65.45
2019-04-27T07:46:10.766Z,60.63
2019-04-27T07:47:09.824Z,61.20
2019-04-27T07:48:10.748Z,59.59
2019-04-27T07:49:09.744Z,61.72
2019-04-27T07:50:09.787Z,61.66
2019-04-27T07:51:09.730Z,61.98
2019-04-27T07:52:09.725Z,60.57
2019-04-27T07:53:09.747Z,61.36
2019-04-27T07:54:09.740Z,61.72
2019-04-27T07:55:09.913Z,65.13
2019-04-27T07:56:10.841Z,68.13
2019-04-27T07:57:09.936Z,67.15
2019-04-27T07:58:10.724Z,68.16
2019-04-27T07:59:09.704Z,68.66
2019-04-27T08:00:09.720Z,70.18
2019-04-27T08:01:09.687Z,67.39
2019-04-27T08:02:11.011Z,70.56
2019-04-27T08:03:10.672Z,69.65
2019-04-27T08:04:09.664Z,68.23
2019-04-27T08:05:09.656Z,69.92
2019-04-27T08:06:10.897Z,69.85
2019-04-27T08:07:10.645Z,70.56
2019-04-27T08:08:09.637Z,70.32
2019-04-27T08:09:09.623Z,74.34
2019-04-27T08:10:09.888Z,76.17
2019-04-27T08:11:11.389Z,74.17
2019-04-27T08:12:11.015Z,72.89
2019-04-27T08:13:10.593Z,75.91
2019-04-27T08:14:09.592Z,78.02
2019-04-27T08:15:09.581Z,79.64
2019-04-27T08:16:09.584Z,77.06
2019-04-27T08:17:09.826Z,77.83
2019-04-27T08:18:10.556Z,74.98
2019-04-27T08:19:09.992Z,74.82
2019-04-27T08:20:10.549Z,74.48
2019-04-27T08:21:09.545Z,75.46
2019-04-27T08:22:09.777Z,76.17
2019-04-27T08:23:10.519Z,75.93
2019-04-27T08:24:11.088Z,71.70
2019-04-27T08:25:09.647Z,67.60
2019-04-27T08:26:09.509Z,63.70
2019-04-27T08:27:09.494Z,67.02
2019-04-27T08:28:10.457Z,64.79
2019-04-27T08:29:09.469Z,67.29
2019-04-27T08:30:30.473Z,68.23
2019-04-27T08:31:10.459Z,69.14
2019-04-27T08:32:09.735Z,69.68
2019-04-27T08:33:10.462Z,69.78
2019-04-27T08:34:09.459Z,69.44
2019-04-27T08:35:09.595Z,70.59
2019-04-27T08:36:10.458Z,70.11
2019-04-27T08:37:09.431Z,73.13
2019-04-27T08:38:09.433Z,73.74
2019-04-27T08:39:09.426Z,73.13
2019-04-27T08:40:09.447Z,71.23
2019-04-27T08:41:09.422Z,72.31
2019-04-27T08:42:09.642Z,70.92
2019-04-27T08:43:10.393Z,70.92
2019-04-27T08:44:09.842Z,73.19
2019-04-27T08:45:10.378Z,74.00
2019-04-27T08:46:09.387Z,70.76
2019-04-27T08:47:09.696Z,67.96
2019-04-27T08:48:10.385Z,65.50
2019-04-27T08:49:10.202Z,68.20
2019-04-27T08:50:09.384Z,64.97
2019-04-27T08:51:09.643Z,64.70
2019-04-27T08:52:10.379Z,64.18
2019-04-27T08:53:09.862Z,66.27
2019-04-27T08:54:10.385Z,65.59
2019-04-27T08:55:09.661Z,67.11
2019-04-27T08:56:10.376Z,67.27
2019-04-27T08:57:09.808Z,68.76
2019-04-27T08:58:10.399Z,68.96
2019-04-27T08:59:09.620Z,70.38
2019-04-27T09:00:10.337Z,69.81
2019-04-27T09:01:10.343Z,69.33
2019-04-27T09:02:10.327Z,71.12
2019-04-27T09:03:09.645Z,66.13
2019-04-27T09:04:11.267Z,64.78
2019-04-27T09:05:10.301Z,65.48
2019-04-27T09:06:09.302Z,67.48
2019-04-27T09:07:09.302Z,64.14
2019-04-27T09:08:09.277Z,66.37
2019-04-27T09:09:09.579Z,63.04
2019-04-27T09:10:10.313Z,61.79
2019-04-27T09:11:09.273Z,60.88
2019-04-27T09:12:09.574Z,64.09
2019-04-27T09:13:10.244Z,59.61
2019-04-27T09:14:09.230Z,60.60
2019-04-27T09:15:10.001Z,59.38
2019-04-27T09:16:11.141Z,63.75
2019-04-27T09:17:09.685Z,63.47
2019-04-27T09:18:10.201Z,61.91
2019-04-27T09:19:09.185Z,63.50
2019-04-27T09:20:09.535Z,61.14
2019-04-27T09:21:10.604Z,63.34
2019-04-27T09:22:15.684Z,62.87
2019-04-27T09:23:11.160Z,60.85
2019-04-27T09:24:09.494Z,59.34
2019-04-27T09:25:10.145Z,62.27
2019-04-27T09:26:09.565Z,58.37
2019-04-27T09:27:10.120Z,56.56
2019-04-27T09:28:10.132Z,59.00
2019-04-27T09:29:09.120Z,56.22
2019-04-27T09:30:10.268Z,52.54
2019-04-27T09:31:09.333Z,54.96
2019-04-27T09:32:10.093Z,55.04
2019-04-27T09:33:09.090Z,59.16
2019-04-27T09:34:10.560Z,59.90
2019-04-27T09:35:09.071Z,59.83
2019-04-27T09:36:09.125Z,58.84
2019-04-27T09:37:09.077Z,60.46
2019-04-27T09:38:09.045Z,60.21
2019-04-27T09:39:09.048Z,59.58
2019-04-27T09:40:09.035Z,60.62
2019-04-27T09:41:09.022Z,60.24
2019-04-27T09:42:09.120Z,61.74
2019-04-27T09:43:09.971Z,62.04
2019-04-27T09:44:09.119Z,61.43
2019-04-27T09:45:09.034Z,62.95
2019-04-27T09:46:08.995Z,63.46
2019-04-27T09:47:09.007Z,63.32
2019-04-27T09:48:09.007Z,60.79
2019-04-27T09:49:10.749Z,62.14
2019-04-27T09:50:09.019Z,62.01
2019-04-27T09:51:08.972Z,62.11
2019-04-27T09:52:08.961Z,63.02
2019-04-27T09:53:08.937Z,63.46
2019-04-27T09:54:08.976Z,63.63
2019-04-27T09:55:08.963Z,63.82
2019-04-27T09:56:08.964Z,65.48
2019-04-27T09:57:08.948Z,65.04
2019-04-27T09:58:08.931Z,65.27
2019-04-27T09:59:08.908Z,65.71
2019-04-27T10:00:08.912Z,65.03
2019-04-27T10:01:09.081Z,65.88
2019-04-27T10:02:09.005Z,66.11
2019-04-27T10:03:08.909Z,66.52
2019-04-27T10:04:08.980Z,67.87
2019-04-27T10:05:09.118Z,67.53
2019-04-27T10:06:08.926Z,67.16
2019-04-27T10:07:08.991Z,68.18
2019-04-27T10:08:08.958Z,68.88
2019-04-27T10:09:08.899Z,68.07
2019-04-27T10:10:08.866Z,68.99
2019-04-27T10:11:08.856Z,68.48
2019-04-27T10:12:08.865Z,69.70
2019-04-27T10:13:08.975Z,69.09
2019-04-27T10:14:09.025Z,69.93
2019-04-27T10:15:08.805Z,70.24
2019-04-27T10:16:08.802Z,69.67
2019-04-27T10:17:08.840Z,70.28
2019-04-27T10:18:08.775Z,70.51
2019-04-27T10:19:08.762Z,71.26
2019-04-27T10:20:08.769Z,71.02
2019-04-27T10:21:08.759Z,71.53
2019-04-27T10:22:08.795Z,70.61
2019-04-27T10:23:08.746Z,70.61
2019-04-27T10:24:08.758Z,70.00
2019-04-27T10:25:08.734Z,71.77
2019-04-27T10:26:08.806Z,70.21
2019-04-27T10:27:08.772Z,70.41
2019-04-27T10:28:08.877Z,70.00
2019-04-27T10:29:08.736Z,71.12
2019-04-27T10:30:08.709Z,70.82
2019-04-27T10:31:08.712Z,71.53
2019-04-27T10:32:08.719Z,70.68
2019-04-27T10:33:08.710Z,70.51
2019-04-27T10:34:08.824Z,71.26
2019-04-27T10:35:08.684Z,71.67
2019-04-27T10:36:08.722Z,72.08
2019-04-27T10:37:09.489Z,72.69
2019-04-27T10:38:08.704Z,72.89
2019-04-27T10:39:08.661Z,71.60
2019-04-27T10:40:08.632Z,72.31
2019-04-27T10:41:08.661Z,72.11
2019-04-27T10:42:08.693Z,73.13
2019-04-27T10:43:08.786Z,72.52
2019-04-27T10:44:08.695Z,73.33
2019-04-27T10:45:08.627Z,73.47
2019-04-27T10:46:08.621Z,73.06
2019-04-27T10:47:08.598Z,74.08
2019-04-27T10:48:08.608Z,73.47
2019-04-27T10:49:08.565Z,74.08
2019-04-27T10:50:08.670Z,74.01
2019-04-27T10:51:08.586Z,74.52
2019-04-27T10:52:08.603Z,75.24
2019-04-27T10:53:08.552Z,74.32
2019-04-27T10:54:08.580Z,75.44
2019-04-27T10:55:08.553Z,76.36
2019-04-27T10:56:08.536Z,76.97
2019-04-27T10:57:08.509Z,76.29
2019-04-27T10:58:08.524Z,77.11
2019-04-27T10:59:09.760Z,78.44
2019-04-27T11:00:09.482Z,78.23
2019-04-27T11:01:08.506Z,78.13
2019-04-27T11:02:08.552Z,77.62
2019-04-27T11:03:08.502Z,77.42
2019-04-27T11:04:08.472Z,77.93
2019-04-27T11:05:08.489Z,77.42
2019-04-27T11:06:08.470Z,77.08
2019-04-27T11:07:08.463Z,76.77
2019-04-27T11:08:08.523Z,77.48
2019-04-27T11:09:08.450Z,76.26
2019-04-27T11:10:08.430Z,77.65
2019-04-27T11:11:08.432Z,76.56
2019-04-27T11:12:08.415Z,76.77
2019-04-27T11:13:08.458Z,77.45
2019-04-27T11:14:08.444Z,77.75
2019-04-27T11:15:08.442Z,76.22
2019-04-27T11:16:08.383Z,76.50
2019-04-27T11:17:08.378Z,76.29
2019-04-27T11:18:08.372Z,75.34
2019-04-27T11:19:08.381Z,75.98
2019-04-27T11:20:08.469Z,74.76
2019-04-27T11:21:08.378Z,75.23
2019-04-27T11:22:08.382Z,76.80
2019-04-27T11:23:12.279Z,76.53
2019-04-27T11:24:09.370Z,76.22
2019-04-27T11:25:08.329Z,76.22
2019-04-27T11:26:08.334Z,76.77
2019-04-27T11:27:08.339Z,78.06
2019-04-27T11:28:08.311Z,78.27
2019-04-27T11:29:08.393Z,77.65
2019-04-27T11:30:08.458Z,77.96
2019-04-27T11:31:08.301Z,78.98
2019-04-27T11:32:08.280Z,78.67
2019-04-27T11:33:08.288Z,79.80
2019-04-27T11:34:08.288Z,78.98
2019-04-27T11:35:08.283Z,79.90
2019-04-27T11:36:08.329Z,81.02
2019-04-27T11:37:08.267Z,79.14
2019-04-27T11:38:08.232Z,78.98
2019-04-27T11:39:08.245Z,78.20
2019-04-27T11:40:08.252Z,80.24
2019-04-27T11:41:08.257Z,80.58
2019-04-27T11:42:08.236Z,81.87
2019-04-27T11:43:08.218Z,81.10
2019-04-27T11:44:08.214Z,81.71
2019-04-27T11:45:08.207Z,81.91
2019-04-27T11:46:08.201Z,82.63
2019-04-27T11:47:09.198Z,82.53
2019-04-27T11:48:08.179Z,82.42
2019-04-27T11:49:08.187Z,83.75
2019-04-27T11:50:08.418Z,84.36
2019-04-27T11:51:11.025Z,84.33
2019-04-27T11:52:09.153Z,84.74
2019-04-27T11:53:19.688Z,84.26
2019-04-27T11:54:10.138Z,84.53
2019-04-27T11:55:08.124Z,84.83
2019-04-27T11:56:08.164Z,84.53
2019-04-27T11:57:08.115Z,84.18
2019-04-27T11:58:08.098Z,82.86
2019-04-27T11:59:08.101Z,82.04
2019-04-27T12:00:08.113Z,81.18
2019-04-27T12:01:08.520Z,82.21
2019-04-27T12:02:09.093Z,81.53
2019-04-27T12:03:08.066Z,80.82
2019-04-27T12:04:08.069Z,81.84
2019-04-27T12:05:08.098Z,83.00
2019-04-27T12:06:08.049Z,82.45
2019-04-27T12:07:08.031Z,81.32
2019-04-27T12:08:08.026Z,81.37
2019-04-27T12:09:08.061Z,81.80
2019-04-27T12:10:08.023Z,81.80
2019-04-27T12:11:08.030Z,81.84
2019-04-27T12:12:13.572Z,81.26
2019-04-27T12:13:10.003Z,81.20
2019-04-27T12:14:07.994Z,81.54
2019-04-27T12:15:07.988Z,84.55
2019-04-27T12:16:07.987Z,84.55
2019-04-27T12:17:07.963Z,84.41
2019-04-27T12:18:09.073Z,82.77
2019-04-27T12:19:08.989Z,82.67
2019-04-27T12:20:07.976Z,81.54
2019-04-27T12:21:07.990Z,82.87
2019-04-27T12:22:07.967Z,83.07
2019-04-27T12:23:07.952Z,81.99
2019-04-27T12:24:07.946Z,82.56
2019-04-27T12:25:07.937Z,82.56
2019-04-27T12:26:07.938Z,82.22
2019-04-27T12:27:07.919Z,81.40
2019-04-27T12:28:07.917Z,82.12
2019-04-27T12:29:07.904Z,81.51
2019-04-27T12:30:07.916Z,81.60
2019-04-27T12:31:09.126Z,80.85
2019-04-27T12:32:07.915Z,79.63
2019-04-27T12:33:07.892Z,79.32
2019-04-27T12:34:07.887Z,78.81
2019-04-27T12:35:07.890Z,78.98
2019-04-27T12:36:07.907Z,79.80
2019-04-27T12:37:07.894Z,79.59
2019-04-27T12:38:07.882Z,80.30
2019-04-27T12:39:07.860Z,78.41
2019-04-27T12:40:07.860Z,78.88
2019-04-27T12:41:08.854Z,77.86
2019-04-27T12:42:07.882Z,78.41
2019-04-27T12:43:07.881Z,78.50
2019-04-27T12:44:07.862Z,78.00
2019-04-27T12:45:07.812Z,78.00
2019-04-27T12:46:07.808Z,79.12
2019-04-27T12:47:07.811Z,78.20
2019-04-27T12:48:07.787Z,78.13
2019-04-27T12:49:07.772Z,79.66
2019-04-27T12:50:07.789Z,79.57
2019-04-27T12:51:07.780Z,79.46
2019-04-27T12:52:07.803Z,79.29